Time;durP1;ratioP1;P1;durP2;ratioP2;P2;SDS_P1;SDS_P2;PMS_P1;PMS_P2;Temp;Humidity;BMP_temperature;BMP_pressure;BME280_temperature;BME280_humidity;BME280_pressure;Samples;Min_cycle;Max_cycle;Signal;HPM_P1;HPM_P2
2023/07/08 00:02:37;;;;;;;19.98;13.40;;;13.00;99.90;;;;;;25710599;23;20004;-53
2023/07/08 00:12:38;;;;;;;21.13;12.70;;;12.90;99.90;;;;;;25710566;23;20055;-50
2023/07/08 00:22:41;;;;;;;20.50;13.13;;;13.10;99.90;;;;;;25716623;23;20005;-45
2023/07/08 00:32:42;;;;;;;18.88;11.15;;;13.00;99.90;;;;;;25691213;23;20096;-44
2023/07/08 00:42:44;;;;;;;19.70;11.65;;;12.80;99.90;;;;;;25717361;23;20316;-50
2023/07/08 00:52:46;;;;;;;18.13;13.35;;;12.70;99.90;;;;;;25758177;23;20005;-47
2023/07/08 01:02:55;;;;;;;21.13;13.80;;;12.70;99.90;;;;;;25716945;23;20009;-49
2023/07/08 01:13:02;;;;;;;18.70;12.73;;;12.70;99.90;;;;;;25757905;23;20008;-49
2023/07/08 01:23:04;;;;;;;14.95;9.50;;;12.60;99.90;;;;;;25716515;23;20000;-49
2023/07/08 01:33:15;;;;;;;15.90;11.70;;;12.60;99.90;;;;;;25715478;23;20004;-50
2023/07/08 01:43:17;;;;;;;18.90;13.43;;;12.50;99.90;;;;;;25725989;23;20393;-49
2023/07/08 01:53:47;;;;;;;27.65;15.73;;;12.40;99.90;;;;;;25714051;23;20004;-49
2023/07/08 02:03:49;;;;;;;25.20;17.17;;;12.40;99.90;;;;;;25696351;23;20078;-46
2023/07/08 02:13:51;;;;;;;29.38;19.17;;;12.50;99.90;;;;;;25713930;23;20004;-49
2023/07/08 02:23:52;;;;;;;26.65;18.52;;;12.40;99.90;;;;;;25687023;23;20008;-49
2023/07/08 02:33:54;;;;;;;28.95;18.90;;;12.40;99.90;;;;;;25712124;23;20008;-50
2023/07/08 02:43:56;;;;;;;33.35;23.58;;;12.40;99.90;;;;;;25712358;23;20321;-49
2023/07/08 02:53:57;;;;;;;36.35;23.77;;;12.30;99.90;;;;;;25685598;23;20001;-50
2023/07/08 03:03:59;;;;;;;36.35;24.52;;;12.30;99.90;;;;;;25685299;23;20066;-50
2023/07/08 03:14:01;;;;;;;36.17;23.42;;;12.30;99.90;;;;;;25710548;23;20019;-52
2023/07/08 03:24:03;;;;;;;39.38;23.00;;;12.30;99.90;;;;;;25685217;23;20015;-49
2023/07/08 03:34:05;;;;;;;33.67;22.58;;;12.20;99.90;;;;;;25711314;23;20062;-52
2023/07/08 03:44:07;;;;;;;29.45;19.90;;;12.30;99.90;;;;;;25684231;23;20082;-50
2023/07/08 03:54:12;;;;;;;24.75;16.50;;;12.30;99.90;;;;;;25715112;23;20059;-46
2023/07/08 04:04:15;;;;;;;20.27;14.75;;;12.40;99.90;;;;;;25692404;23;20050;-53
2023/07/08 04:14:18;;;;;;;18.95;12.73;;;12.40;99.90;;;;;;25691789;23;20070;-49
2023/07/08 04:24:19;;;;;;;15.95;10.77;;;12.40;99.90;;;;;;25718524;23;20070;-50
2023/07/08 04:34:21;;;;;;;8.70;6.15;;;12.50;99.90;;;;;;25717921;23;20285;-49
2023/07/08 04:44:24;;;;;;;7.38;4.40;;;12.50;99.90;;;;;;25717271;23;20035;-52
2023/07/08 04:54:25;;;;;;;4.97;3.45;;;12.80;99.90;;;;;;25716865;23;20084;-50
2023/07/08 05:04:27;;;;;;;5.00;3.15;;;13.00;99.90;;;;;;25716682;23;20063;-50
2023/07/08 05:14:29;;;;;;;4.65;2.70;;;13.00;99.90;;;;;;25716366;23;20319;-44
2023/07/08 05:24:31;;;;;;;5.82;3.03;;;13.40;99.90;;;;;;25715813;23;20027;-49
2023/07/08 05:34:33;;;;;;;4.78;2.72;;;14.10;99.90;;;;;;25688605;23;20008;-51
2023/07/08 05:44:34;;;;;;;3.80;2.60;;;15.00;99.90;;;;;;25714791;23;20012;-44
2023/07/08 05:54:40;;;;;;;5.80;2.70;;;15.70;99.90;;;;;;25714634;23;20460;-46
2023/07/08 06:04:41;;;;;;;4.13;2.50;;;16.20;99.90;;;;;;25687374;23;20008;-50
2023/07/08 06:14:43;;;;;;;4.45;2.55;;;16.70;99.90;;;;;;25712292;23;20015;-46
2023/07/08 06:24:45;;;;;;;3.65;2.25;;;17.50;99.90;;;;;;25713684;23;20000;-47
2023/07/08 06:34:46;;;;;;;4.38;2.65;;;18.00;99.90;;;;;;25712084;23;20001;-53
2023/07/08 06:44:54;;;;;;;2.85;2.47;;;19.00;99.90;;;;;;25712237;23;20070;-55
2023/07/08 06:54:55;;;;;;;3.15;2.67;;;19.50;99.90;;;;;;25753834;23;20004;-50
2023/07/08 07:04:57;;;;;;;4.15;3.20;;;20.30;99.90;;;;;;25712228;23;20499;-47
2023/07/08 07:14:58;;;;;;;3.58;3.08;;;20.20;99.90;;;;;;25711509;23;20313;-54
2023/07/08 07:25:01;;;;;;;4.47;3.58;;;20.10;99.90;;;;;;25711517;23;20004;-46
2023/07/08 07:35:03;;;;;;;4.75;3.10;;;20.50;99.90;;;;;;25709452;23;20059;-46
2023/07/08 07:45:05;;;;;;;4.65;3.13;;;21.40;99.90;;;;;;25710626;23;20079;-46
2023/07/08 07:55:09;;;;;;;4.60;3.50;;;21.90;99.90;;;;;;25709940;23;20072;-45
2023/07/08 08:05:10;;;;;;;5.82;3.67;;;21.80;99.90;;;;;;25710996;23;20062;-45
2023/07/08 08:15:12;;;;;;;4.63;3.70;;;22.80;99.90;;;;;;25709851;23;20004;-45
2023/07/08 08:25:15;;;;;;;4.47;3.78;;;25.20;96.60;;;;;;25710291;23;20016;-46
2023/07/08 08:35:17;;;;;;;4.57;3.95;;;26.00;92.70;;;;;;25709980;23;20067;-56
2023/07/08 08:45:21;;;;;;;7.07;4.20;;;25.90;91.60;;;;;;25717125;23;20015;-47
2023/07/08 08:55:24;;;;;;;5.63;4.22;;;26.00;92.50;;;;;;25716161;23;20013;-54
2023/07/08 09:05:26;;;;;;;4.88;3.97;;;26.20;92.30;;;;;;25715418;23;20000;-47
2023/07/08 09:15:28;;;;;;;6.15;4.47;;;26.10;93.90;;;;;;25716385;23;20340;-46
2023/07/08 09:25:51;;;;;;;7.60;4.95;;;26.20;93.50;;;;;;25716325;23;20004;-55
2023/07/08 09:35:55;;;;;;;5.00;4.28;;;25.90;94.00;;;;;;25757222;23;20012;-55
2023/07/08 09:45:59;;;;;;;4.95;4.45;;;25.90;94.70;;;;;;25713586;23;20439;-53
2023/07/08 09:56:03;;;;;;;5.22;3.97;;;25.90;95.40;;;;;;25713876;23;20032;-53
2023/07/08 10:06:17;;;;;;;4.40;3.95;;;25.80;95.30;;;;;;25711753;23;20005;-47
2023/07/08 10:16:31;;;;;;;4.55;4.15;;;26.10;95.20;;;;;;25755291;23;20436;-54
2023/07/08 10:26:34;;;;;;;7.20;4.80;;;26.30;94.60;;;;;;25712004;23;20375;-50
2023/07/08 10:36:53;;;;;;;5.32;4.15;;;26.10;94.00;;;;;;25712826;23;20032;-55
2023/07/08 10:47:15;;;;;;;6.97;5.30;;;25.40;96.20;;;;;;25712437;23;20075;-48
2023/07/08 10:57:42;;;;;;;7.28;4.60;;;25.80;93.10;;;;;;25753788;23;20031;-47
2023/07/08 11:08:03;;;;;;;5.17;3.93;;;26.00;96.20;;;;;;25685218;23;20004;-48
2023/07/08 11:18:24;;;;;;;4.68;3.50;;;25.90;94.20;;;;;;25752777;23;20008;-48
2023/07/08 11:28:26;;;;;;;4.07;3.30;;;26.30;92.80;;;;;;25752842;23;20004;-48
2023/07/08 11:38:28;;;;;;;6.22;3.88;;;26.10;93.50;;;;;;25710939;23;20011;-49
2023/07/08 11:48:36;;;;;;;4.38;3.42;;;26.30;93.30;;;;;;25710939;23;20012;-47
2023/07/08 11:58:52;;;;;;;3.90;3.50;;;26.40;94.30;;;;;;25752179;23;20019;-56
2023/07/08 12:08:56;;;;;;;4.70;3.40;;;26.50;88.30;;;;;;25709434;23;20008;-48
2023/07/08 12:19:07;;;;;;;4.80;3.72;;;26.30;90.50;;;;;;25718066;23;20024;-49
2023/07/08 12:29:13;;;;;;;5.80;3.08;;;26.90;92.00;;;;;;25733421;23;20020;-55
2023/07/08 12:39:16;;;;;;;3.30;2.80;;;26.90;90.30;;;;;;25759357;23;20004;-55
2023/07/08 12:49:20;;;;;;;3.92;2.90;;;26.80;90.00;;;;;;25665075;23;20074;-48
2023/07/08 12:59:23;;;;;;;5.20;3.30;;;27.50;90.20;;;;;;25716793;23;20008;-46
2023/07/08 13:09:31;;;;;;;4.88;3.50;;;27.80;91.00;;;;;;25715491;23;20009;-47
2023/07/08 13:19:33;;;;;;;4.88;3.47;;;28.20;86.50;;;;;;25757509;23;20009;-46
2023/07/08 13:29:35;;;;;;;6.13;3.53;;;28.90;91.10;;;;;;25715225;23;20000;-47
2023/07/08 13:39:37;;;;;;;4.20;3.80;;;29.50;89.90;;;;;;25714981;23;20004;-46
2023/07/08 13:49:44;;;;;;;4.53;3.58;;;28.80;90.70;;;;;;25714474;23;20391;-58
2023/07/08 13:59:45;;;;;;;4.65;3.33;;;28.90;89.20;;;;;;25755819;23;20008;-49
2023/07/08 14:09:48;;;;;;;5.60;3.90;;;28.90;87.70;;;;;;25712797;23;20005;-46
2023/07/08 14:19:50;;;;;;;4.63;3.80;;;29.60;86.60;;;;;;25713839;23;20012;-46
2023/07/08 14:29:52;;;;;;;5.53;4.00;;;29.50;86.90;;;;;;25713025;23;20016;-48
2023/07/08 14:39:53;;;;;;;5.20;3.75;;;29.90;84.90;;;;;;25712012;23;20008;-45
2023/07/08 14:49:55;;;;;;;7.05;3.78;;;28.70;82.70;;;;;;25712203;23;20039;-49
2023/07/08 14:59:57;;;;;;;7.03;4.05;;;28.00;83.90;;;;;;25712582;23;20009;-48
2023/07/08 15:09:58;;;;;;;5.40;4.18;;;28.10;88.60;;;;;;25711999;23;20035;-47
2023/07/08 15:20:04;;;;;;;6.10;4.78;;;28.90;87.70;;;;;;25711010;23;20008;-55
2023/07/08 15:30:18;;;;;;;4.95;4.45;;;28.80;85.60;;;;;;25710008;23;20031;-47
2023/07/08 15:40:22;;;;;;;5.45;4.75;;;28.40;87.30;;;;;;25725485;23;20008;-46
2023/07/08 15:50:25;;;;;;;5.80;5.20;;;28.30;86.90;;;;;;25710021;23;20017;-45
2023/07/08 16:00:30;;;;;;;8.93;5.20;;;27.90;84.40;;;;;;25710168;23;20005;-49
2023/07/08 16:10:32;;;;;;;6.80;5.17;;;27.10;85.60;;;;;;25709389;23;20293;-48
2023/07/08 16:20:34;;;;;;;7.15;5.03;;;25.50;90.90;;;;;;25709536;23;20004;-50
2023/07/08 16:30:36;;;;;;;11.25;5.32;;;23.80;93.50;;;;;;25708796;23;20005;-49
2023/07/08 16:40:37;;;;;;;8.63;4.63;;;23.00;94.00;;;;;;25706958;23;20258;-46
2023/07/08 16:50:40;;;;;;;8.38;5.15;;;22.40;95.70;;;;;;25708052;23;20337;-48
2023/07/08 17:00:44;;;;;;;8.25;5.50;;;21.40;95.40;;;;;;25710416;23;20031;-46
2023/07/08 17:10:45;;;;;;;11.02;6.47;;;20.20;98.10;;;;;;25715352;23;20005;-46
2023/07/08 17:20:50;;;;;;;7.15;4.95;;;19.10;99.90;;;;;;25715584;23;20336;-46
2023/07/08 17:30:53;;;;;;;7.68;5.07;;;18.50;99.90;;;;;;25715149;23;20063;-45
2023/07/08 17:40:55;;;;;;;8.57;5.55;;;18.00;99.90;;;;;;25714699;23;20395;-48
2023/07/08 17:50:56;;;;;;;10.15;6.72;;;17.60;99.90;;;;;;25713836;23;20511;-50
2023/07/08 18:00:58;;;;;;;8.85;5.60;;;17.30;99.90;;;;;;25714558;23;20004;-48
2023/07/08 18:11:00;;;;;;;9.32;6.05;;;16.90;99.90;;;;;;25714029;23;20036;-49
2023/07/08 18:21:02;;;;;;;12.73;6.50;;;16.90;99.90;;;;;;25686830;23;20008;-47
2023/07/08 18:31:10;;;;;;;12.02;7.57;;;17.20;99.90;;;;;;25685480;23;20012;-49
2023/07/08 18:41:22;;;;;;;12.07;7.88;;;17.20;99.90;;;;;;25753809;23;20346;-51
2023/07/08 18:51:36;;;;;;;9.05;5.50;;;16.90;99.90;;;;;;25716762;23;20012;-45
2023/07/08 19:01:42;;;;;;;9.32;5.90;;;16.80;99.90;;;;;;25710107;23;20513;-50
2023/07/08 19:11:46;;;;;;;10.45;5.18;;;16.30;99.90;;;;;;25751428;23;20005;-49
2023/07/08 19:21:47;;;;;;;15.77;10.07;;;16.20;99.90;;;;;;25683521;23;20005;-47
2023/07/08 19:31:49;;;;;;;10.38;6.00;;;15.90;99.90;;;;;;25710834;23;20012;-46
2023/07/08 19:41:51;;;;;;;8.77;6.20;;;15.50;99.90;;;;;;25708652;23;20011;-45
2023/07/08 19:51:52;;;;;;;10.13;6.15;;;15.20;99.90;;;;;;25710845;23;20016;-48
2023/07/08 20:01:54;;;;;;;9.52;5.55;;;15.00;99.90;;;;;;25708854;23;20024;-46
2023/07/08 20:11:56;;;;;;;8.77;5.97;;;15.00;99.90;;;;;;25682885;23;20071;-47
2023/07/08 20:21:57;;;;;;;10.35;5.95;;;14.90;99.90;;;;;;25709408;23;20005;-50
2023/07/08 20:31:59;;;;;;;8.80;5.43;;;14.80;99.90;;;;;;25709703;23;20004;-48
2023/07/08 20:42:06;;;;;;;10.35;6.60;;;14.90;99.90;;;;;;25717305;23;20051;-44
2023/07/08 20:52:11;;;;;;;8.77;6.05;;;14.90;99.90;;;;;;25717788;23;20046;-46
2023/07/08 21:02:24;;;;;;;13.73;6.55;;;14.90;99.90;;;;;;25716089;23;20004;-45
2023/07/08 21:12:26;;;;;;;8.20;5.28;;;14.80;99.90;;;;;;25757432;23;20004;-49
2023/07/08 21:22:32;;;;;;;8.98;5.65;;;14.70;99.90;;;;;;25716011;23;20004;-46
2023/07/08 21:32:33;;;;;;;8.68;5.65;;;14.60;99.90;;;;;;25756360;23;20080;-47
2023/07/08 21:42:35;;;;;;;8.23;6.18;;;14.60;99.90;;;;;;25713832;23;20001;-45
2023/07/08 21:52:37;;;;;;;7.85;5.18;;;14.60;99.90;;;;;;25755848;23;20008;-48
2023/07/08 22:02:49;;;;;;;6.80;5.28;;;14.50;99.90;;;;;;25714125;23;20062;-45
2023/07/08 22:12:51;;;;;;;9.35;5.65;;;14.50;99.90;;;;;;25712785;23;20008;-44
2023/07/08 22:22:54;;;;;;;8.30;5.60;;;14.40;99.90;;;;;;25713286;23;20005;-50
2023/07/08 22:32:55;;;;;;;9.38;5.85;;;14.40;99.90;;;;;;25713335;23;20000;-45
2023/07/08 22:42:59;;;;;;;7.63;5.45;;;14.40;99.90;;;;;;25712604;23;20016;-48
2023/07/08 22:53:01;;;;;;;7.88;5.40;;;14.40;99.90;;;;;;25753912;23;20019;-49
2023/07/08 23:03:03;;;;;;;9.25;5.72;;;14.30;99.90;;;;;;25713588;23;20055;-47
2023/07/08 23:13:04;;;;;;;12.07;6.35;;;14.10;99.90;;;;;;25712110;23;20008;-45
2023/07/08 23:23:06;;;;;;;12.00;5.65;;;14.20;99.90;;;;;;25711723;23;20004;-50
2023/07/08 23:33:17;;;;;;;9.25;5.97;;;14.20;99.90;;;;;;25711246;23;20004;-49
2023/07/08 23:43:19;;;;;;;9.65;5.88;;;14.00;99.90;;;;;;25745959;23;20013;-45
2023/07/08 23:53:21;;;;;;;8.98;6.18;;;14.10;99.90;;;;;;25710741;23;20013;-47
